Time;durP1;ratioP1;P1;durP2;ratioP2;P2;SDS_P1;SDS_P2;PMS_P1;PMS_P2;Temp;Humidity;BMP_temperature;BMP_pressure;BME280_temperature;BME280_humidity;BME280_pressure;Samples;Min_cycle;Max_cycle;Signal;HPM_P1;HPM_P2
2022/10/29 00:04:55;;;;;;;26.30;18.50;;;;;;;10.90;84.86;99197.95;421829;1289;108888;-41
2022/10/29 00:14:59;;;;;;;24.60;17.70;;;;;;;10.85;85.04;99180.53;421807;1295;99243;-41
2022/10/29 00:25:21;;;;;;;28.90;17.30;;;;;;;10.81;85.20;99184.27;421873;1296;111189;-41
2022/10/29 00:35:26;;;;;;;30.50;17.30;;;;;;;10.80;85.28;99190.15;421821;1289;99266;-41
2022/10/29 00:45:29;;;;;;;26.50;18.20;;;;;;;10.83;85.31;99185.52;421852;1294;112939;-40
2022/10/29 00:55:33;;;;;;;28.40;18.00;;;;;;;10.88;85.32;99186.61;421825;1294;108519;-41
2022/10/29 01:05:37;;;;;;;19.90;15.50;;;;;;;10.90;85.33;99184.13;421963;1293;98343;-41
2022/10/29 01:16:00;;;;;;;21.50;15.30;;;;;;;10.92;85.36;99181.27;423053;1279;108828;-42
2022/10/29 01:26:28;;;;;;;22.30;14.90;;;;;;;10.94;85.36;99174.71;422789;1272;98061;-41
2022/10/29 01:36:30;;;;;;;21.20;13.60;;;;;;;10.95;85.40;99175.48;422447;1295;111684;-41
2022/10/29 01:46:39;;;;;;;26.90;14.00;;;;;;;10.92;85.38;99167.70;422649;1285;108213;-41
2022/10/29 01:56:43;;;;;;;24.70;15.90;;;;;;;10.94;85.41;99176.02;422518;1288;216885;-41
2022/10/29 02:07:05;;;;;;;18.20;12.70;;;;;;;10.97;85.42;99171.15;422425;1292;108782;-41
2022/10/29 02:17:09;;;;;;;24.30;14.10;;;;;;;10.94;85.40;99161.78;422578;1292;99252;-41
2022/10/29 02:27:13;;;;;;;21.00;12.90;;;;;;;10.88;85.35;99149.70;422460;1295;111026;-42
2022/10/29 02:37:16;;;;;;;18.00;11.90;;;;;;;10.83;85.48;99141.80;422629;1281;107712;-40
2022/10/29 02:47:20;;;;;;;21.10;12.50;;;;;;;10.87;85.65;99148.48;422908;1295;99208;-40
2022/10/29 02:57:24;;;;;;;22.40;14.70;;;;;;;10.90;85.52;99150.84;422889;1295;108476;-40
2022/10/29 03:07:28;;;;;;;20.50;13.40;;;;;;;10.88;85.55;99143.30;423069;1295;98825;-40
2022/10/29 03:17:31;;;;;;;21.40;13.60;;;;;;;10.89;85.64;99148.43;422560;1295;111683;-39
2022/10/29 03:27:39;;;;;;;20.30;13.60;;;;;;;10.94;85.69;99156.77;422506;1292;107504;-40
2022/10/29 03:37:43;;;;;;;25.00;13.60;;;;;;;10.94;85.73;99144.68;422444;1286;99211;-40
2022/10/29 03:47:47;;;;;;;19.70;13.60;;;;;;;10.93;85.83;99132.97;422481;1294;108659;-40
2022/10/29 03:58:09;;;;;;;15.90;11.40;;;;;;;10.99;86.04;99138.60;422768;1292;98355;-41
2022/10/29 04:08:13;;;;;;;19.80;12.60;;;;;;;11.06;86.04;99134.57;422681;1295;112365;-40
2022/10/29 04:18:16;;;;;;;18.60;11.20;;;;;;;11.12;86.06;99119.98;422585;1294;107904;-40
2022/10/29 04:28:38;;;;;;;15.50;11.50;;;;;;;11.21;86.10;99118.33;422736;1296;98049;-39
2022/10/29 04:38:47;;;;;;;21.00;12.60;;;;;;;11.26;86.17;99117.04;422187;1293;108442;-40
2022/10/29 04:48:50;;;;;;;20.70;12.10;;;;;;;11.32;86.13;99131.70;422263;1294;99103;-41
2022/10/29 04:58:54;;;;;;;17.20;10.60;;;;;;;11.33;85.96;99138.63;422678;1295;111604;-41
2022/10/29 05:08:57;;;;;;;17.20;11.30;;;;;;;11.28;86.01;99128.98;422609;1288;109384;-40
2022/10/29 05:19:19;;;;;;;15.50;10.80;;;;;;;11.27;86.08;99126.07;422644;1290;99870;-39
2022/10/29 05:29:23;;;;;;;15.10;10.20;;;;;;;11.30;86.13;99134.83;422797;1295;108441;-41
2022/10/29 05:39:27;;;;;;;18.60;10.80;;;;;;;11.36;86.25;99143.16;422572;1286;99214;-41
2022/10/29 05:49:30;;;;;;;17.10;10.80;;;;;;;11.45;86.25;99152.21;422539;1295;111645;-40
2022/10/29 05:59:52;;;;;;;18.60;11.30;;;;;;;11.48;86.10;99158.29;422838;1288;109110;-40
2022/10/29 06:09:55;;;;;;;17.70;11.40;;;;;;;11.52;86.04;99166.38;422439;1293;99450;-40
2022/10/29 06:19:59;;;;;;;18.90;10.90;;;;;;;11.57;86.06;99173.77;422405;1296;107776;-41
2022/10/29 06:30:03;;;;;;;20.10;10.90;;;;;;;11.69;86.08;99180.80;423570;1288;98372;-41
2022/10/29 06:40:08;;;;;;;18.30;11.50;;;;;;;11.83;85.95;99188.81;422416;1295;111191;-40
2022/10/29 06:50:30;;;;;;;18.10;10.30;;;;;;;12.02;85.95;99200.30;422726;1292;108500;-41
2022/10/29 07:00:52;;;;;;;15.90;11.40;;;;;;;12.33;86.01;99214.20;422455;1286;99252;-41
2022/10/29 07:10:56;;;;;;;16.90;10.80;;;;;;;13.15;86.12;99224.30;422468;1295;108301;-40
2022/10/29 07:21:02;;;;;;;16.70;11.70;;;;;;;13.89;85.87;99233.09;423275;1288;98661;-41
2022/10/29 07:41:10;;;;;;;14.60;8.50;;;;;;;16.04;84.78;99239.58;422413;1295;108466;-41
2022/10/29 07:51:32;;;;;;;13.40;8.40;;;;;;;16.89;83.95;99238.80;422674;1296;99260;-41
2022/10/29 08:01:36;;;;;;;12.50;7.70;;;;;;;17.55;83.08;99231.27;422687;1296;108047;-41
2022/10/29 08:11:40;;;;;;;11.70;6.70;;;;;;;17.73;81.81;99231.53;422349;1294;98012;-41
2022/10/29 08:22:01;;;;;;;10.20;6.30;;;;;;;17.87;81.00;99231.52;422436;1288;111062;-41
2022/10/29 08:32:06;;;;;;;8.10;5.50;;;;;;;17.82;79.95;99232.27;422140;1286;107881;-39
2022/10/29 08:42:31;;;;;;;11.40;6.50;;;;;;;17.80;79.46;99232.31;422603;1289;99160;-40
2022/10/29 08:52:36;;;;;;;13.10;6.40;;;;;;;17.72;78.53;99224.52;422774;1292;107537;-39
2022/10/29 09:02:39;;;;;;;17.40;7.10;;;;;;;17.51;77.48;99232.46;422497;1296;98694;-40
2022/10/29 09:12:54;;;;;;;11.70;6.00;;;;;;;17.54;77.39;99234.41;422624;1295;110982;-39
2022/10/29 09:23:03;;;;;;;19.30;5.70;;;;;;;17.76;77.04;99228.73;422570;1287;107689;-39
2022/10/29 09:33:25;;;;;;;13.70;5.50;;;;;;;18.28;76.63;99222.38;422559;1296;99273;-40
2022/10/29 09:53:36;;;;;;;11.70;5.80;;;;;;;18.09;75.84;99211.10;422784;1289;97969;-40
2022/10/29 10:13:51;;;;;;;10.50;5.60;;;;;;;17.89;75.40;99195.15;422402;1295;108033;-41
2022/10/29 10:24:26;;;;;;;9.10;6.50;;;;;;;17.73;75.36;99200.77;422599;1296;97958;-41
2022/10/29 10:34:36;;;;;;;11.90;6.60;;;;;;;17.68;75.52;99202.72;422538;1292;107578;-41
2022/10/29 10:44:44;;;;;;;13.80;6.30;;;;;;;17.81;75.24;99202.52;422417;1293;98864;-41
2022/10/29 10:54:46;;;;;;;14.90;6.30;;;;;;;18.04;75.00;99202.09;422416;1296;112485;-40
2022/10/29 11:15:12;;;;;;;13.30;5.80;;;;;;;18.50;74.93;99197.77;422582;1292;99246;-40
2022/10/29 11:25:16;;;;;;;11.20;5.80;;;;;;;18.65;74.33;99198.27;422331;1289;107590;-41
2022/10/29 11:35:19;;;;;;;14.20;5.40;;;;;;;18.82;74.22;99191.15;422756;1295;99921;-41
2022/10/29 11:45:22;;;;;;;18.80;5.50;;;;;;;19.01;73.94;99176.33;422441;1296;111652;-41
2022/10/29 11:55:27;;;;;;;13.20;6.20;;;;;;;19.16;73.44;99160.37;422278;1284;108568;-41
2022/10/29 12:05:31;;;;;;;8.10;5.30;;;;;;;19.26;73.13;99163.40;422376;1295;99246;-42
2022/10/29 12:15:34;;;;;;;10.40;6.50;;;;;;;19.32;72.74;99168.41;422659;1300;108469;-42
2022/10/29 12:25:39;;;;;;;15.10;5.70;;;;;;;19.38;72.26;99163.61;422767;1297;99271;-40
2022/10/29 12:35:51;;;;;;;8.70;4.90;;;;;;;19.41;72.25;99150.85;422649;1295;109838;-40
2022/10/29 12:46:16;;;;;;;10.50;5.70;;;;;;;19.54;72.07;99145.44;422493;1299;107593;-41
2022/10/29 12:56:26;;;;;;;13.20;5.60;;;;;;;19.55;71.91;99145.40;422635;1285;99234;-40
2022/10/29 13:06:45;;;;;;;15.30;5.70;;;;;;;19.56;72.04;99133.54;422650;1293;107120;-40
2022/10/29 13:16:49;;;;;;;12.70;5.70;;;;;;;19.52;71.97;99124.41;422155;1289;98028;-41
2022/10/29 13:26:56;;;;;;;19.10;8.30;;;;;;;19.37;71.82;99120.08;422439;1295;110774;-41
2022/10/29 13:47:36;;;;;;;11.00;5.30;;;;;;;19.38;71.75;99128.37;422430;1289;99236;-41
2022/10/29 13:57:43;;;;;;;13.30;6.80;;;;;;;19.27;71.80;99128.09;421986;1296;444030;-40
2022/10/29 14:07:48;;;;;;;17.70;6.60;;;;;;;18.98;71.79;99122.89;422883;1284;99249;-41
2022/10/29 14:17:52;;;;;;;11.10;6.30;;;;;;;18.72;71.97;99121.28;423485;1287;111711;-41
2022/10/29 14:28:19;;;;;;;17.70;7.40;;;;;;;18.45;72.26;99117.39;422157;1302;108856;-41
2022/10/29 14:38:27;;;;;;;9.40;5.00;;;;;;;18.22;72.56;99128.10;422476;1289;98020;-41
2022/10/29 14:48:31;;;;;;;12.80;7.00;;;;;;;17.92;72.82;99127.41;422668;1296;108118;-40
2022/10/29 14:58:36;;;;;;;16.50;8.50;;;;;;;17.63;73.21;99126.05;422585;1293;99211;-40
2022/10/29 15:08:42;;;;;;;21.20;10.60;;;;;;;17.35;73.38;99124.02;422435;1296;111394;-41
2022/10/29 15:18:50;;;;;;;21.90;10.80;;;;;;;17.12;73.72;99123.80;422072;1296;107310;-40
2022/10/29 15:29:12;;;;;;;31.60;17.50;;;;;;;16.92;74.13;99125.10;422547;1289;97993;-40
2022/10/29 15:39:47;;;;;;;33.40;18.80;;;;;;;16.67;74.51;99117.02;422297;1292;108124;-40
2022/10/29 15:49:50;;;;;;;36.30;19.80;;;;;;;16.43;74.97;99116.05;422640;1277;99211;-41
2022/10/29 15:59:56;;;;;;;24.90;15.50;;;;;;;16.23;75.27;99108.79;422525;1287;111697;-40
2022/10/29 16:20:03;;;;;;;28.60;15.40;;;;;;;16.00;75.84;99114.66;422886;1295;99896;-40
2022/10/29 16:30:08;;;;;;;21.50;13.50;;;;;;;15.90;76.06;99103.92;422381;1296;108492;-40
2022/10/29 16:40:11;;;;;;;18.10;11.40;;;;;;;15.78;76.29;99115.62;422894;1292;99214;-39
2022/10/29 16:50:19;;;;;;;21.40;12.10;;;;;;;15.68;76.42;99121.92;422460;1285;111555;-40
2022/10/29 17:10:30;;;;;;;19.40;11.80;;;;;;;15.30;76.49;99129.08;422625;1286;98762;-41
2022/10/29 17:20:33;;;;;;;17.30;10.80;;;;;;;15.13;76.68;99137.27;422414;1285;106982;-40
2022/10/29 17:30:55;;;;;;;20.40;12.10;;;;;;;14.93;76.89;99135.38;422970;1278;98863;-40
2022/10/29 17:40:59;;;;;;;17.70;12.10;;;;;;;14.75;77.05;99131.33;423069;1294;111590;-40
2022/10/29 17:51:21;;;;;;;17.70;11.00;;;;;;;14.55;77.50;99141.57;422905;1293;108960;-40
2022/10/29 18:01:25;;;;;;;15.30;11.30;;;;;;;14.43;77.73;99139.08;422711;1286;99255;-41
2022/10/29 18:11:29;;;;;;;16.90;12.10;;;;;;;14.27;77.94;99135.95;422784;1296;108009;-39
2022/10/29 18:21:33;;;;;;;19.20;12.80;;;;;;;14.16;78.19;99141.05;422528;1295;98834;-40
2022/10/29 18:31:40;;;;;;;18.60;11.70;;;;;;;14.06;78.27;99141.64;422467;1295;112134;-41
2022/10/29 18:41:44;;;;;;;20.20;13.40;;;;;;;13.90;78.56;99131.36;422830;1286;107221;-41
2022/10/29 18:52:06;;;;;;;22.40;15.70;;;;;;;13.79;78.84;99139.14;422774;1286;99140;-40
2022/10/29 19:02:28;;;;;;;27.80;17.30;;;;;;;13.72;79.05;99144.80;422815;1295;107681;-40
2022/10/29 19:12:50;;;;;;;32.20;18.50;;;;;;;13.63;79.05;99138.99;422468;1295;99588;-39
2022/10/29 19:33:16;;;;;;;31.00;21.60;;;;;;;13.45;79.40;99134.77;422850;1285;108335;-38
2022/10/29 19:43:19;;;;;;;32.00;20.00;;;;;;;13.41;79.65;99146.95;422902;1292;99233;-39
2022/10/29 19:53:24;;;;;;;30.80;20.10;;;;;;;13.37;79.74;99138.70;422681;1287;109367;-40
2022/10/29 20:03:28;;;;;;;40.20;22.20;;;;;;;13.24;79.88;99137.09;423088;1295;99356;-41
2022/10/29 20:13:50;;;;;;;37.30;24.30;;;;;;;13.12;80.03;99132.52;422815;1293;111509;-41
2022/10/29 20:23:56;;;;;;;34.40;22.20;;;;;;;13.02;80.33;99131.02;422628;1294;109160;-41
2022/10/29 20:34:19;;;;;;;31.20;23.00;;;;;;;12.93;80.43;99131.47;422351;1295;99902;-41
2022/10/29 20:44:22;;;;;;;35.40;22.80;;;;;;;12.85;80.68;99126.38;422525;1295;108764;-39
2022/10/29 20:54:26;;;;;;;39.00;23.00;;;;;;;12.82;80.77;99126.41;422641;1295;99275;-39
2022/10/29 21:04:30;;;;;;;37.20;23.90;;;;;;;12.72;80.99;99124.20;422981;1295;111564;-41
2022/10/29 21:14:51;;;;;;;39.80;24.70;;;;;;;12.68;81.13;99120.94;422607;1294;107624;-42
2022/10/29 21:24:55;;;;;;;36.50;25.60;;;;;;;12.61;81.36;99113.48;422467;1295;99001;-41
2022/10/29 21:34:59;;;;;;;40.00;24.10;;;;;;;12.62;81.64;99112.59;422834;1293;107569;-41
2022/10/29 21:45:02;;;;;;;36.30;24.90;;;;;;;12.65;81.67;99096.95;422698;1295;98139;-40
2022/10/29 21:55:06;;;;;;;34.10;21.70;;;;;;;12.57;81.75;99082.23;422381;1293;112513;-41
2022/10/29 22:05:28;;;;;;;38.30;22.30;;;;;;;12.62;82.09;99100.44;422641;1288;108932;-40
2022/10/29 22:15:50;;;;;;;28.90;19.80;;;;;;;12.70;81.98;99101.66;422504;1292;99367;-40
2022/10/29 22:25:53;;;;;;;28.10;20.20;;;;;;;12.69;82.03;99096.06;422657;1286;108102;-41
2022/10/29 22:36:02;;;;;;;32.90;21.00;;;;;;;12.73;82.16;99099.13;422608;1295;99324;-40
2022/10/29 22:46:06;;;;;;;;;;;;;;;12.71;82.19;99081.73;422638;1286;112406;-41
2022/10/29 22:56:09;;;;;;;36.80;22.80;;;;;;;12.59;82.12;99067.92;422708;1295;107095;-40
2022/10/29 23:06:17;;;;;;;39.90;23.90;;;;;;;12.43;82.24;99078.56;422704;1286;99276;-40
2022/10/29 23:16:22;;;;;;;35.00;22.40;;;;;;;12.17;82.09;99080.13;422591;1289;108352;-40
2022/10/29 23:26:26;;;;;;;33.60;21.80;;;;;;;12.02;82.25;99079.27;422746;1291;99059;-40
2022/10/29 23:36:48;;;;;;;48.20;26.60;;;;;;;11.92;82.23;99101.78;422799;1294;112703;-40
2022/10/29 23:46:52;;;;;;;41.40;24.30;;;;;;;11.79;82.19;99100.43;422643;1295;108510;-40
2022/10/29 23:56:56;;;;;;;36.30;22.00;;;;;;;11.47;82.10;99087.86;422313;1287;99498;-41
